Time;durP1;ratioP1;P1;durP2;ratioP2;P2;SDS_P1;SDS_P2;PMS_P1;PMS_P2;Temp;Humidity;BMP_temperature;BMP_pressure;BME280_temperature;BME280_humidity;BME280_pressure;Samples;Min_cycle;Max_cycle;Signal;HPM_P1;HPM_P2
2021/11/11 00:02:08;;;;;;;;;30.00;27.75;;;;;17.42;48.34;99380.13;4783859;29;104119;-90
2021/11/11 00:04:36;;;;;;;;;37.00;31.50;;;;;17.42;48.75;99385.59;4802249;29;102362;-90
2021/11/11 00:07:04;;;;;;;;;36.00;31.50;;;;;17.40;49.30;99382.25;4819603;28;102353;-90
2021/11/11 00:09:32;;;;;;;;;34.75;31.25;;;;;17.40;49.34;99379.50;4805340;29;102462;-90
2021/11/11 00:12:01;;;;;;;;;34.00;31.75;;;;;17.39;48.72;99377.81;4822445;29;104218;-89
2021/11/11 00:14:31;;;;;;;;;36.75;30.50;;;;;17.38;48.50;99378.91;4825521;28;102475;-89
2021/11/11 00:16:58;;;;;;;;;37.75;33.25;;;;;17.35;48.53;99377.44;4805006;28;103037;-90
2021/11/11 00:19:25;;;;;;;;;35.00;31.25;;;;;17.33;48.52;99376.00;4824007;28;104652;-89
2021/11/11 00:21:52;;;;;;;;;35.00;31.75;;;;;17.35;49.40;99379.34;4816745;29;104159;-90
2021/11/11 00:24:19;;;;;;;;;34.00;30.50;;;;;17.33;48.92;99373.28;4810441;28;102238;-90
2021/11/11 00:26:47;;;;;;;;;36.00;30.25;;;;;17.33;48.37;99378.75;4792380;28;104073;-89
2021/11/11 00:29:14;;;;;;;;;34.25;30.50;;;;;17.32;48.66;99379.81;4818508;28;104148;-90
2021/11/11 00:31:41;;;;;;;;;36.00;31.75;;;;;17.30;48.43;99381.91;4805465;28;109114;-90
2021/11/11 00:34:08;;;;;;;;;40.75;32.00;;;;;17.29;49.17;99374.78;4823990;28;102704;-90
2021/11/11 00:36:35;;;;;;;;;33.25;30.50;;;;;17.28;48.09;99373.97;4820419;28;102897;-90
2021/11/11 00:39:02;;;;;;;;;35.25;30.25;;;;;17.27;48.47;99369.53;4821488;28;102451;-90
2021/11/11 00:41:30;;;;;;;;;33.00;30.75;;;;;17.26;48.71;99364.28;4821799;29;104424;-89
2021/11/11 00:43:58;;;;;;;;;34.50;30.00;;;;;17.25;48.37;99363.44;4818502;28;102609;-89
2021/11/11 00:46:27;;;;;;;;;38.75;31.00;;;;;17.25;48.61;99376.28;4815462;29;102367;-90
2021/11/11 00:48:56;;;;;;;;;35.75;30.75;;;;;17.24;48.49;99377.38;4788965;29;102631;-90
2021/11/11 00:51:24;;;;;;;;;38.75;29.50;;;;;17.23;48.46;99378.41;4819134;29;104008;-89
2021/11/11 00:53:54;;;;;;;;;35.00;30.25;;;;;17.22;48.72;99379.47;4812569;28;103137;-90
2021/11/11 00:56:21;;;;;;;;;29.50;26.25;;;;;17.20;48.46;99376.94;4818372;29;105228;-89
2021/11/11 00:58:48;;;;;;;;;34.25;28.75;;;;;17.20;48.36;99373.41;4809672;28;103526;-89
2021/11/11 01:01:15;;;;;;;;;31.00;27.75;;;;;17.19;49.33;99374.47;4790557;29;104049;-89
2021/11/11 01:03:42;;;;;;;;;32.25;29.00;;;;;17.17;49.41;99382.03;4805085;28;105690;-83
2021/11/11 01:06:09;;;;;;;;;24.75;23.00;;;;;17.17;48.19;99373.84;4775473;29;102859;-83
2021/11/11 01:08:37;;;;;;;;;29.75;27.25;;;;;17.14;48.84;99374.31;4802541;29;104468;-82
2021/11/11 01:11:05;;;;;;;;;33.25;27.75;;;;;17.14;49.01;99380.59;4803041;28;104035;-83
2021/11/11 01:13:33;;;;;;;;;27.50;25.75;;;;;17.12;48.52;99382.72;4815250;28;102363;-83
2021/11/11 01:16:01;;;;;;;;;36.00;27.75;;;;;17.12;48.31;99374.50;4790802;29;102697;-83
2021/11/11 01:18:28;;;;;;;;;29.25;27.25;;;;;17.12;48.68;99369.03;4817530;28;102708;-83
2021/11/11 01:20:56;;;;;;;;;32.00;26.00;;;;;17.12;48.88;99368.22;4820628;28;104095;-89
2021/11/11 01:23:23;;;;;;;;;30.50;26.25;;;;;17.10;48.82;99364.88;4802064;28;103975;-89
2021/11/11 01:25:50;;;;;;;;;30.75;27.00;;;;;17.11;48.56;99352.91;4813818;28;102661;-88
2021/11/11 01:28:17;;;;;;;;;28.50;26.00;;;;;17.09;48.73;99349.53;4827391;28;102865;-83
2021/11/11 01:30:45;;;;;;;;;31.75;28.00;;;;;17.07;48.85;99348.91;4815929;28;105772;-88
2021/11/11 01:33:12;;;;;;;;;30.00;28.50;;;;;17.06;48.18;99341.81;4754378;29;102674;-89
2021/11/11 01:35:39;;;;;;;;;27.50;24.50;;;;;17.03;48.53;99334.03;4770034;29;102259;-90
2021/11/11 01:38:06;;;;;;;;;31.75;28.25;;;;;17.05;49.06;99345.59;4790066;29;105041;-83
2021/11/11 01:40:33;;;;;;;;;27.75;26.00;;;;;17.03;48.71;99343.06;4796392;29;105516;-82
2021/11/11 01:43:02;;;;;;;;;26.75;25.00;;;;;17.01;48.78;99352.56;4806352;28;102745;-83
2021/11/11 01:45:34;;;;;;;;;26.50;25.00;;;;;17.01;48.53;99347.09;4790400;28;103252;-83
2021/11/11 01:48:03;;;;;;;;;27.00;25.25;;;;;16.98;49.45;99347.53;4789569;28;103891;-83
2021/11/11 01:50:30;;;;;;;;;30.00;27.00;;;;;16.99;48.14;99339.13;4813028;28;104312;-89
2021/11/11 01:52:57;;;;;;;;;23.50;22.50;;;;;16.98;48.29;99339.31;4801545;28;105343;-89
2021/11/11 01:55:25;;;;;;;;;24.25;21.50;;;;;16.98;49.03;99339.31;4804725;29;104719;-89
2021/11/11 01:57:52;;;;;;;;;28.25;25.50;;;;;16.98;48.06;99339.31;4823291;28;102200;-88
2021/11/11 02:00:26;;;;;;;;;26.00;24.25;;;;;16.97;48.29;99345.88;4791896;29;104032;-88
2021/11/11 02:02:54;;;;;;;;;25.00;23.25;;;;;16.95;48.13;99346.09;4787146;29;103708;-88
2021/11/11 02:05:21;;;;;;;;;26.00;24.25;;;;;16.95;48.99;99346.09;4782396;29;103119;-89
2021/11/11 02:07:49;;;;;;;;;27.25;25.00;;;;;16.94;48.03;99349.88;4790220;29;104054;-83
2021/11/11 02:10:17;;;;;;;;;27.75;25.00;;;;;16.94;48.24;99345.25;4761993;29;104061;-83
2021/11/11 02:12:45;;;;;;;;;25.75;22.25;;;;;16.93;48.23;99346.31;4767909;28;102475;-83
2021/11/11 02:15:13;;;;;;;;;23.25;21.75;;;;;16.92;48.63;99347.38;4785678;28;104061;-83
2021/11/11 02:17:40;;;;;;;;;26.50;24.50;;;;;16.92;48.22;99352.84;4813735;28;102549;-83
2021/11/11 02:20:13;;;;;;;;;27.00;23.75;;;;;16.89;48.29;99336.03;4802999;28;103112;-89
2021/11/11 02:22:40;;;;;;;;;23.75;22.25;;;;;16.89;48.55;99328.69;4815796;28;102386;-89
2021/11/11 02:25:16;;;;;;;;;21.50;19.75;;;;;16.88;48.83;99332.50;4808035;28;102806;-90
2021/11/11 02:27:43;;;;;;;;;26.50;24.00;;;;;16.87;48.03;99332.72;4812891;29;103742;-90
2021/11/11 02:30:12;;;;;;;;;29.75;22.25;;;;;16.86;48.50;99334.63;4812449;28;104147;-90
2021/11/11 02:32:39;;;;;;;;;22.75;18.00;;;;;16.86;48.57;99329.16;4798521;29;104693;-90
2021/11/11 02:35:08;;;;;;;;;22.50;20.50;;;;;16.86;48.16;99312.75;4815700;29;102678;-90
2021/11/11 02:37:39;;;;;;;;;26.00;21.75;;;;;16.86;48.39;99326.41;4807585;28;102787;-90
2021/11/11 02:40:08;;;;;;;;;22.00;21.00;;;;;16.85;48.58;99322.00;4806625;28;104375;-90
2021/11/11 02:42:35;;;;;;;;;24.00;23.00;;;;;16.84;48.83;99314.88;4825041;28;102888;-89
2021/11/11 02:45:05;;;;;;;;;21.75;21.50;;;;;16.83;48.50;99304.19;4811712;28;102243;-90
2021/11/11 02:47:33;;;;;;;;;27.50;23.00;;;;;16.87;48.58;99310.88;4786532;29;104728;-89
2021/11/11 02:50:00;;;;;;;;;21.25;18.75;;;;;16.85;49.06;99307.50;4796089;28;104126;-90
2021/11/11 02:52:27;;;;;;;;;21.00;17.00;;;;;16.83;48.54;99305.03;4783913;29;103584;-82
2021/11/11 02:54:54;;;;;;;;;20.75;19.00;;;;;16.83;48.65;99299.56;4814460;29;102941;-89
2021/11/11 02:57:28;;;;;;;;;21.25;19.00;;;;;16.82;48.91;99297.03;4824185;29;102659;-89
2021/11/11 02:59:57;;;;;;;;;20.25;18.50;;;;;16.81;49.23;99296.19;4816168;28;104260;-89
2021/11/11 03:02:28;;;;;;;;;24.00;21.50;;;;;16.79;49.14;99292.88;4820438;29;102243;-83
2021/11/11 03:04:57;;;;;;;;;21.50;18.50;;;;;16.78;49.07;99296.66;4807898;29;102513;-83
2021/11/11 03:07:24;;;;;;;;;17.50;17.25;;;;;16.78;48.19;99291.19;4821993;29;102272;-83
2021/11/11 03:09:51;;;;;;;;;20.25;19.50;;;;;16.77;48.42;99292.25;4820153;28;103962;-83
2021/11/11 03:12:19;;;;;;;;;22.25;19.25;;;;;16.76;48.16;99292.47;4808195;29;102292;-82
2021/11/11 03:14:46;;;;;;;;;26.00;20.50;;;;;16.76;48.80;99298.75;4828654;28;102448;-89
2021/11/11 03:17:13;;;;;;;;;22.00;19.00;;;;;16.75;48.69;99288.91;4819422;28;102310;-89
2021/11/11 03:19:40;;;;;;;;;22.00;18.75;;;;;16.75;48.65;99288.91;4822664;29;104038;-90
2021/11/11 03:22:09;;;;;;;;;19.50;16.75;;;;;16.76;48.99;99289.72;4822549;29;104255;-87
2021/11/11 03:24:37;;;;;;;;;18.75;15.00;;;;;16.74;48.53;99295.44;4792661;29;102379;-89
2021/11/11 03:27:05;;;;;;;;;20.25;16.50;;;;;16.74;48.00;99289.13;4801536;29;102688;-90
2021/11/11 03:29:32;;;;;;;;;22.75;18.75;;;;;16.73;48.85;99298.38;4824256;29;104098;-89
2021/11/11 03:31:59;;;;;;;;;19.75;17.25;;;;;16.71;48.32;99295.88;4825077;28;105779;-83
2021/11/11 03:34:26;;;;;;;;;18.25;18.00;;;;;16.70;48.16;99299.69;4819292;29;105895;-82
2021/11/11 03:36:54;;;;;;;;;20.75;17.00;;;;;16.69;48.74;99287.06;4823697;29;102258;-89
2021/11/11 03:39:22;;;;;;;;;21.50;19.00;;;;;16.70;48.76;99304.31;4822333;29;104084;-89
2021/11/11 03:41:51;;;;;;;;;20.75;19.25;;;;;16.69;48.38;99292.53;4792976;29;104982;-85
2021/11/11 03:44:18;;;;;;;;;19.25;15.75;;;;;16.68;48.49;99290.88;4825234;29;102583;-89
2021/11/11 03:46:46;;;;;;;;;17.00;15.75;;;;;16.67;48.70;99283.72;4817661;28;102269;-89
2021/11/11 03:49:13;;;;;;;;;15.25;14.00;;;;;16.67;48.11;99278.25;4816376;29;104313;-89
2021/11/11 03:51:41;;;;;;;;;19.00;17.00;;;;;16.67;48.08;99283.72;4809084;29;103210;-89
2021/11/11 03:54:09;;;;;;;;;21.25;18.25;;;;;16.67;48.21;99283.72;4806570;29;102496;-89
2021/11/11 03:56:36;;;;;;;;;18.75;16.00;;;;;16.66;48.33;99276.59;4815123;29;102140;-89
2021/11/11 03:59:04;;;;;;;;;20.00;17.00;;;;;16.67;48.75;99282.88;4789550;28;104128;-89
2021/11/11 04:01:31;;;;;;;;;19.00;16.25;;;;;16.66;49.05;99281.22;4821556;29;104398;-89
2021/11/11 04:03:59;;;;;;;;;20.25;18.50;;;;;16.64;48.51;99284.19;4818800;28;102948;-89
2021/11/11 04:06:26;;;;;;;;;18.50;17.00;;;;;16.65;48.41;99277.66;4812631;29;103465;-89
2021/11/11 04:08:54;;;;;;;;;17.25;15.50;;;;;16.63;48.30;99282.50;4788588;29;104157;-88
2021/11/11 04:11:22;;;;;;;;;19.00;17.75;;;;;16.62;48.41;99278.09;4783669;29;102614;-88
2021/11/11 04:13:50;;;;;;;;;18.75;13.25;;;;;16.62;48.54;99279.97;4752581;29;102709;-82
2021/11/11 04:16:17;;;;;;;;;16.25;14.25;;;;;16.60;47.90;99282.97;4790230;29;102241;-89
2021/11/11 04:18:44;;;;;;;;;19.50;15.00;;;;;16.61;49.05;99286.53;4796841;29;103446;-89
2021/11/11 04:21:11;;;;;;;;;16.50;15.25;;;;;16.60;47.98;99288.41;4773138;29;102708;-82
2021/11/11 04:23:38;;;;;;;;;16.50;13.75;;;;;16.59;47.90;99284.00;4801206;29;102665;-83
2021/11/11 04:26:14;;;;;;;;;14.75;13.50;;;;;16.59;48.33;99278.53;4792388;29;102378;-89
2021/11/11 04:31:39;;;;;;;;;15.75;12.75;;;;;16.58;48.33;99268.69;4794622;29;105242;-89
2021/11/11 04:34:09;;;;;;;;;17.00;14.50;;;;;16.58;48.12;99276.88;4802235;29;102945;-89
2021/11/11 04:47:39;;;;;;;;;14.75;13.00;;;;;16.54;48.22;99278.34;4803820;29;102540;-84
2021/11/11 05:03:40;;;;;;;;;21.00;14.50;;;;;16.47;48.45;99261.19;4787645;29;105375;-89
2021/11/11 05:06:07;;;;;;;;;19.25;17.00;;;;;16.45;48.54;99275.06;4803027;29;103819;-89
2021/11/11 05:08:34;;;;;;;;;14.25;13.00;;;;;16.45;48.91;99268.75;4809021;29;103885;-89
2021/11/11 05:11:01;;;;;;;;;14.00;13.00;;;;;16.44;48.33;99250.69;4827591;28;105514;-88
2021/11/11 05:13:28;;;;;;;;;13.50;12.00;;;;;16.44;48.55;99251.53;4814987;29;102204;-89
2021/11/11 05:15:56;;;;;;;;;15.00;14.00;;;;;16.44;48.39;99257.00;4798759;29;102461;-89
2021/11/11 05:18:23;;;;;;;;;18.50;15.00;;;;;16.44;48.04;99256.16;4805807;29;102536;-88
2021/11/11 05:20:50;;;;;;;;;16.50;12.75;;;;;16.43;48.00;99257.25;4825327;28;103691;-90
2021/11/11 05:23:17;;;;;;;;;11.75;11.75;;;;;16.42;48.97;99247.38;4819919;29;102387;-82
2021/11/11 05:25:44;;;;;;;;;15.50;14.50;;;;;16.38;48.61;99236.06;4787575;29;102552;-83
2021/11/11 05:28:16;;;;;;;;;18.25;15.75;;;;;16.41;47.84;99245.69;4776361;29;103148;-82
2021/11/11 05:30:43;;;;;;;;;15.00;13.25;;;;;16.39;48.43;99253.28;4772886;29;103400;-89
2021/11/11 05:33:10;;;;;;;;;14.75;13.50;;;;;16.39;48.05;99242.38;4822194;28;104254;-88
2021/11/11 05:35:39;;;;;;;;;13.75;13.00;;;;;16.39;47.81;99247.84;4813963;29;102680;-89
2021/11/11 05:38:06;;;;;;;;;16.75;14.50;;;;;16.37;47.83;99239.00;4826551;29;102817;-89
2021/11/11 05:40:34;;;;;;;;;17.00;15.00;;;;;16.37;48.60;99242.59;4824227;29;104020;-89
2021/11/11 05:43:01;;;;;;;;;14.25;13.25;;;;;16.36;48.67;99243.63;4803829;29;102359;-89
2021/11/11 05:45:28;;;;;;;;;17.25;14.50;;;;;16.36;48.28;99240.06;4816165;29;102161;-82
2021/11/11 05:47:55;;;;;;;;;14.25;12.00;;;;;16.34;48.28;99239.47;4817245;29;102820;-89
2021/11/11 05:50:22;;;;;;;;;14.25;12.50;;;;;16.33;48.73;99240.53;4797194;29;104044;-88
2021/11/11 05:52:49;;;;;;;;;19.00;14.00;;;;;16.33;48.64;99248.72;4817375;29;103377;-89
2021/11/11 05:55:16;;;;;;;;;13.00;12.50;;;;;16.32;48.08;99250.59;4809339;29;112139;-89
2021/11/11 05:57:43;;;;;;;;;16.00;13.00;;;;;16.33;48.29;99248.72;4820153;29;102409;-82
2021/11/11 06:00:13;;;;;;;;;13.75;12.50;;;;;16.32;48.11;99257.94;4812234;29;104050;-83
2021/11/11 06:02:43;;;;;;;;;13.75;13.00;;;;;16.33;48.31;99259.63;4806475;28;102538;-89
2021/11/11 06:05:11;;;;;;;;;16.25;15.25;;;;;16.32;48.46;99263.41;4789464;29;102624;-89
2021/11/11 06:07:38;;;;;;;;;14.75;13.00;;;;;16.32;48.50;99260.69;4804178;29;103285;-89
2021/11/11 06:10:06;;;;;;;;;14.25;13.25;;;;;16.29;48.61;99248.31;4801481;29;104534;-90
2021/11/11 06:12:33;;;;;;;;;17.25;13.00;;;;;16.28;48.38;99245.81;4804667;29;102570;-89
2021/11/11 06:15:00;;;;;;;;;13.25;12.50;;;;;16.28;47.82;99245.81;4801866;29;103761;-82
2021/11/11 06:17:27;;;;;;;;;14.00;13.00;;;;;16.27;48.15;99246.84;4823402;29;102617;-88
2021/11/11 06:19:54;;;;;;;;;11.25;10.50;;;;;16.26;48.40;99250.63;4815564;29;104047;-89
2021/11/11 06:22:21;;;;;;;;;14.25;13.00;;;;;16.25;48.67;99251.72;4821829;29;102130;-89
2021/11/11 06:24:48;;;;;;;;;14.75;11.75;;;;;16.26;48.71;99264.28;4820029;28;102658;-89
2021/11/11 06:27:16;;;;;;;;;15.25;14.00;;;;;16.25;48.23;99268.09;4821232;29;102687;-82
2021/11/11 06:29:44;;;;;;;;;12.50;11.75;;;;;16.25;48.52;99279.00;4786513;29;104492;-89
2021/11/11 06:32:11;;;;;;;;;16.00;13.00;;;;;16.24;48.21;99266.41;4818683;28;103447;-83
2021/11/11 06:34:57;;;;;;;;;14.25;12.25;;;;;16.24;48.57;99253.63;4812650;28;102744;-83
2021/11/11 06:37:25;;;;;;;;;13.50;11.00;;;;;16.24;48.29;99244.59;4818127;28;102690;-83
2021/11/11 06:39:52;;;;;;;;;18.00;13.00;;;;;16.25;48.66;99246.25;4823233;29;103450;-83
2021/11/11 06:42:19;;;;;;;;;13.25;12.25;;;;;16.23;48.59;99237.44;4829922;28;102534;-83
2021/11/11 06:44:47;;;;;;;;;13.75;12.00;;;;;16.24;48.02;99233.66;4823712;29;103636;-88
2021/11/11 06:47:14;;;;;;;;;12.75;12.00;;;;;16.22;47.92;99236.59;4821721;29;102239;-89
2021/11/11 06:49:41;;;;;;;;;17.00;16.00;;;;;16.20;48.21;99227.81;4824065;29;103993;-90
2021/11/11 06:52:09;;;;;;;;;10.75;10.50;;;;;16.22;47.96;99235.78;4820984;29;102336;-90
2021/11/11 06:54:37;;;;;;;;;17.50;16.00;;;;;16.21;48.60;99242.31;4809118;29;102686;-90
2021/11/11 06:57:04;;;;;;;;;15.00;12.50;;;;;16.21;47.86;99240.38;4826089;29;102463;-90
2021/11/11 06:59:31;;;;;;;;;13.25;12.50;;;;;16.20;48.47;99246.09;4826098;29;103322;-90
2021/11/11 07:01:58;;;;;;;;;13.00;11.25;;;;;16.21;48.49;99236.84;4820301;29;102190;-82
2021/11/11 07:04:26;;;;;;;;;14.50;13.00;;;;;16.19;47.75;99236.22;4810873;29;102546;-83
2021/11/11 07:06:53;;;;;;;;;12.75;12.50;;;;;16.20;47.97;99238.75;4805982;29;102639;-83
2021/11/11 07:09:20;;;;;;;;;13.00;12.00;;;;;16.20;48.29;99246.94;4805344;29;104043;-82
2021/11/11 07:11:47;;;;;;;;;13.25;12.50;;;;;16.20;48.26;99238.75;4826165;28;103011;-83
2021/11/11 07:14:14;;;;;;;;;16.00;12.25;;;;;16.20;47.88;99248.81;4818299;29;102404;-83
2021/11/11 07:16:42;;;;;;;;;16.25;14.25;;;;;16.20;47.84;99244.19;4805979;29;110892;-83
2021/11/11 07:19:09;;;;;;;;;10.75;10.00;;;;;16.21;48.06;99239.59;4805711;29;104865;-87
2021/11/11 07:21:36;;;;;;;;;15.50;11.50;;;;;16.19;47.78;99238.94;4826957;28;103577;-83
2021/11/11 07:24:04;;;;;;;;;17.00;13.50;;;;;16.19;48.21;99241.69;4809954;29;102457;-90
2021/11/11 07:26:31;;;;;;;;;15.50;13.50;;;;;16.19;47.67;99241.69;4806726;29;103631;-89
2021/11/11 07:28:58;;;;;;;;;12.25;12.00;;;;;16.16;48.33;99240.25;4830953;29;104346;-89
2021/11/11 07:31:26;;;;;;;;;14.75;12.75;;;;;16.19;47.98;99241.69;4820138;29;102451;-89
2021/11/11 07:33:53;;;;;;;;;14.50;12.00;;;;;16.18;48.02;99238.13;4799309;29;102339;-87
2021/11/11 07:36:24;;;;;;;;;15.50;14.25;;;;;16.19;47.85;99249.88;4812523;29;102933;-89
2021/11/11 07:38:52;;;;;;;;;15.75;14.00;;;;;16.18;48.64;99240.00;4815329;29;104069;-90
2021/11/11 07:41:20;;;;;;;;;13.50;12.00;;;;;16.17;48.21;99236.44;4761617;29;103191;-90
2021/11/11 07:43:47;;;;;;;;;12.50;12.25;;;;;16.16;47.77;99229.34;4799943;29;102406;-90
2021/11/11 07:46:15;;;;;;;;;12.25;11.00;;;;;16.17;48.19;99230.13;4827768;28;102244;-89
2021/11/11 07:48:43;;;;;;;;;14.25;13.00;;;;;16.17;48.26;99243.78;4817424;29;105100;-90
2021/11/11 07:51:10;;;;;;;;;15.00;12.25;;;;;16.16;47.77;99242.13;4806217;29;102650;-89
2021/11/11 07:53:37;;;;;;;;;14.25;11.75;;;;;16.17;48.10;99244.63;4814700;28;104254;-89
2021/11/11 07:56:05;;;;;;;;;16.00;14.25;;;;;16.17;47.82;99239.16;4816388;29;102307;-89
2021/11/11 07:58:37;;;;;;;;;14.50;13.00;;;;;16.18;48.12;99234.53;4823225;29;104411;-90
2021/11/11 08:01:04;;;;;;;;;17.00;15.25;;;;;16.19;48.36;99233.50;4804247;29;102449;-89
2021/11/11 08:03:31;;;;;;;;;17.00;12.50;;;;;16.18;47.71;99229.94;4800648;29;102696;-83
2021/11/11 08:05:58;;;;;;;;;16.00;12.75;;;;;16.17;47.95;99227.41;4825853;28;102421;-89
2021/11/11 08:08:25;;;;;;;;;16.25;13.00;;;;;16.16;47.75;99223.88;4820960;29;105726;-89
2021/11/11 08:10:52;;;;;;;;;11.50;11.50;;;;;16.15;47.89;99218.63;4823254;28;111153;-89
2021/11/11 08:13:19;;;;;;;;;13.25;12.00;;;;;16.15;48.12;99218.63;4821558;28;102623;-89
2021/11/11 08:15:46;;;;;;;;;16.00;14.25;;;;;16.17;48.15;99219.22;4823764;29;102635;-89
2021/11/11 08:18:13;;;;;;;;;13.50;13.00;;;;;16.18;48.28;99213.56;4817544;28;104083;-88
2021/11/11 08:20:40;;;;;;;;;19.00;16.00;;;;;16.17;48.04;99211.88;4825360;28;102563;-89
2021/11/11 08:23:07;;;;;;;;;14.50;12.25;;;;;16.17;48.00;99198.22;4823535;29;111868;-88
2021/11/11 08:25:35;;;;;;;;;16.50;14.50;;;;;16.17;47.71;99206.41;4818805;28;102639;-90
2021/11/11 08:28:02;;;;;;;;;18.25;14.00;;;;;16.16;48.23;99210.22;4807497;28;104361;-89
2021/11/11 08:30:29;;;;;;;;;13.50;12.75;;;;;16.17;47.90;99208.31;4824274;29;102451;-89
2021/11/11 08:32:56;;;;;;;;;15.25;14.50;;;;;16.17;47.32;99195.50;4826726;28;102414;-89
2021/11/11 08:35:23;;;;;;;;;15.00;13.00;;;;;16.18;48.12;99207.25;4821843;29;104809;-84
2021/11/11 08:37:50;;;;;;;;;13.50;12.00;;;;;16.17;47.82;99216.50;4832827;29;104121;-88
2021/11/11 08:40:20;;;;;;;;;12.25;11.25;;;;;16.20;48.28;99218.81;4795638;29;103514;-89
2021/11/11 08:42:49;;;;;;;;;12.00;10.00;;;;;16.19;48.07;99225.31;4804888;29;102473;-89
2021/11/11 08:45:16;;;;;;;;;13.75;12.50;;;;;16.19;47.85;99226.16;4814388;29;102223;-83
2021/11/11 08:47:44;;;;;;;;;16.75;15.00;;;;;16.19;47.14;99225.31;4825124;28;103780;-89
2021/11/11 08:50:11;;;;;;;;;12.50;12.50;;;;;16.20;47.70;99213.34;4812975;29;103642;-89
2021/11/11 08:52:44;;;;;;;;;12.75;11.75;;;;;16.22;47.52;99209.31;4816930;29;106634;-89
2021/11/11 08:55:12;;;;;;;;;16.00;11.75;;;;;16.22;47.53;99203.88;4833403;28;102709;-89
2021/11/11 08:57:39;;;;;;;;;15.00;13.25;;;;;16.23;48.02;99199.25;4806912;29;104282;-88
2021/11/11 09:00:09;;;;;;;;;16.25;15.00;;;;;16.24;47.32;99190.00;4813677;28;102577;-83
2021/11/11 09:02:36;;;;;;;;;16.75;14.50;;;;;16.25;47.46;99180.78;4825950;29;102486;-89
2021/11/11 09:05:04;;;;;;;;;17.25;15.00;;;;;16.26;47.09;99182.41;4827640;28;105635;-89
2021/11/11 09:07:31;;;;;;;;;14.75;13.75;;;;;16.26;47.83;99176.97;4827007;28;105317;-89
2021/11/11 09:09:58;;;;;;;;;14.25;11.00;;;;;16.26;47.42;99185.16;4808002;29;104072;-89
2021/11/11 09:12:25;;;;;;;;;14.25;12.75;;;;;16.25;47.73;99178.88;4817397;28;102478;-89
2021/11/11 09:14:52;;;;;;;;;14.00;13.50;;;;;16.25;47.15;99178.03;4829774;29;102276;-89
2021/11/11 09:17:20;;;;;;;;;16.75;13.25;;;;;16.27;47.66;99184.09;4823736;28;105194;-89
2021/11/11 09:19:47;;;;;;;;;16.00;13.00;;;;;16.27;47.42;99179.47;4809972;29;102581;-89
2021/11/11 09:22:14;;;;;;;;;12.25;11.00;;;;;16.29;47.59;99187.44;4825319;28;102639;-82
2021/11/11 09:24:41;;;;;;;;;12.75;12.00;;;;;16.30;47.92;99172.75;4828042;29;102463;-83
2021/11/11 09:27:08;;;;;;;;;15.00;13.00;;;;;16.30;47.11;99178.22;4817292;29;104260;-89
2021/11/11 09:29:35;;;;;;;;;12.75;12.50;;;;;16.30;46.89;99184.47;4822094;29;104867;-89
2021/11/11 09:32:55;;;;;;;;;13.50;11.25;;;;;16.33;46.97;99186.78;4833908;28;103355;-89
2021/11/11 09:35:22;;;;;;;;;16.50;12.75;;;;;16.33;47.14;99185.94;4819987;28;102499;-89
2021/11/11 09:37:50;;;;;;;;;13.50;12.75;;;;;16.30;47.30;99173.56;4759386;29;106633;-89
2021/11/11 09:40:21;;;;;;;;;16.50;13.25;;;;;16.29;47.39;99166.47;4789170;28;102394;-89
2021/11/11 09:42:49;;;;;;;;;13.50;12.75;;;;;16.32;47.11;99170.63;4812778;29;103930;-89
2021/11/11 09:45:21;;;;;;;;;10.00;9.50;;;;;16.35;46.92;99175.63;4807103;28;102646;-89
2021/11/11 09:47:48;;;;;;;;;16.25;15.00;;;;;16.34;47.64;99166.63;4777101;29;105366;-88
2021/11/11 09:50:17;;;;;;;;;19.75;15.75;;;;;16.35;46.96;99170.16;4798286;29;103775;-90
2021/11/11 09:52:45;;;;;;;;;8.25;5.25;;;;;16.36;47.25;99166.38;4818542;28;104171;-90
2021/11/11 09:58:38;;;;;;;;;14.00;12.25;;;;;16.39;47.08;99146.84;4785914;29;108960;-83
2021/11/11 10:00:57;;;;;;;;;13.50;12.00;;;;;16.38;47.57;99147.91;4809071;29;102284;-89
2021/11/11 10:03:24;;;;;;;;;12.75;11.00;;;;;16.39;47.69;99146.84;4808337;29;102657;-89
2021/11/11 10:05:51;;;;;;;;;14.50;12.00;;;;;16.39;47.62;99153.09;4831091;28;102633;-89
2021/11/11 10:08:38;;;;;;;;;18.50;13.50;;;;;16.40;47.46;99151.22;4824809;29;104222;-89
2021/11/11 10:11:10;;;;;;;;;14.00;10.75;;;;;16.40;47.61;99148.50;4807549;29;110954;-89
2021/11/11 10:13:38;;;;;;;;;13.25;12.00;;;;;16.40;47.69;99156.69;4807554;28;102607;-89
2021/11/11 10:16:15;;;;;;;;;13.75;13.00;;;;;16.41;48.11;99156.47;4815619;29;102283;-89
2021/11/11 10:18:45;;;;;;;;;13.50;12.50;;;;;16.42;47.45;99151.84;4793306;29;104435;-83
2021/11/11 10:21:21;;;;;;;;;12.75;12.00;;;;;16.42;47.69;99146.38;4818950;29;102115;-89
2021/11/11 10:23:48;;;;;;;;;12.00;11.00;;;;;16.41;47.31;99147.44;4808740;29;102141;-90
2021/11/11 10:26:22;;;;;;;;;13.50;13.25;;;;;16.41;47.25;99150.16;4821286;29;102660;-89
2021/11/11 10:28:49;;;;;;;;;13.75;12.25;;;;;16.39;47.99;99149.56;4810212;29;104208;-89
2021/11/11 10:31:17;;;;;;;;;16.75;12.25;;;;;16.43;47.73;99145.34;4824703;29;109112;-89
2021/11/11 10:34:07;;;;;;;;;13.50;11.00;;;;;16.42;47.34;99136.31;4826262;29;102556;-89
2021/11/11 10:36:46;;;;;;;;;10.75;9.75;;;;;16.43;47.24;99137.16;4819947;28;102567;-83
2021/11/11 10:39:17;;;;;;;;;11.25;9.75;;;;;16.43;47.93;99131.69;4821169;29;104133;-89
2021/11/11 10:41:45;;;;;;;;;11.00;10.50;;;;;16.42;48.12;99135.47;4822961;29;103413;-90
2021/11/11 10:44:30;;;;;;;;;14.25;12.25;;;;;16.44;47.89;99133.31;4798946;29;102360;-83
2021/11/11 10:47:05;;;;;;;;;15.25;12.00;;;;;16.44;47.57;99133.31;4814435;29;102773;-88
2021/11/11 10:49:38;;;;;;;;;11.25;10.25;;;;;16.46;47.62;99133.94;4808894;29;104260;-89
2021/11/11 10:52:29;;;;;;;;;17.25;12.00;;;;;16.45;48.26;99130.38;4801288;29;102432;-89
2021/11/11 10:55:00;;;;;;;;;14.00;13.00;;;;;16.46;47.90;99117.56;4820836;29;103277;-89
2021/11/11 10:57:39;;;;;;;;;17.25;12.50;;;;;16.48;48.08;99129.09;4812782;28;102820;-88
2021/11/11 11:00:14;;;;;;;;;10.25;10.25;;;;;16.49;47.61;99119.84;4820449;29;104114;-89
2021/11/11 11:03:01;;;;;;;;;12.00;11.00;;;;;16.49;48.18;99117.94;4806141;29;102335;-88
2021/11/11 11:05:47;;;;;;;;;13.50;10.50;;;;;16.49;47.49;99111.66;4795496;29;103133;-89
2021/11/11 11:08:17;;;;;;;;;6.50;5.50;;;;;16.50;47.83;99116.06;4814235;28;103362;-83
2021/11/11 11:10:50;;;;;;;;;14.00;12.75;;;;;16.51;48.23;99112.28;4768719;28;104100;-89
2021/11/11 11:13:39;;;;;;;;;11.50;10.00;;;;;16.51;48.15;99115.84;4765050;29;103411;-89
2021/11/11 11:16:19;;;;;;;;;12.25;12.25;;;;;16.51;47.78;99109.53;4803389;29;102616;-90
2021/11/11 11:18:55;;;;;;;;;15.00;13.50;;;;;16.55;47.53;99109.91;4791247;29;108746;-89
2021/11/11 11:21:29;;;;;;;;;12.25;10.50;;;;;16.55;47.63;99118.94;4810638;29;110713;-88
2021/11/11 11:24:00;;;;;;;;;15.00;12.50;;;;;16.55;47.66;99116.22;4823609;29;102306;-90
2021/11/11 11:26:29;;;;;;;;;15.00;11.75;;;;;16.58;47.81;99118.50;4798041;29;103120;-89
2021/11/11 11:29:33;;;;;;;;;11.25;10.50;;;;;16.58;47.89;99114.94;4824353;29;104763;-84
2021/11/11 11:32:23;;;;;;;;;13.25;11.75;;;;;16.59;47.76;99114.72;4825668;28;104135;-90
2021/11/11 11:34:52;;;;;;;;;13.25;12.00;;;;;16.61;47.59;99123.53;4807072;28;102728;-89
2021/11/11 11:37:33;;;;;;;;;9.50;9.00;;;;;16.61;48.05;99115.34;4814338;29;102579;-89
2021/11/11 11:40:11;;;;;;;;;10.75;10.75;;;;;16.63;47.69;99118.66;4802152;29;102625;-90
2021/11/11 11:42:43;;;;;;;;;15.25;12.00;;;;;16.64;47.19;99114.88;4818504;29;104289;-89
2021/11/11 11:45:21;;;;;;;;;12.75;11.50;;;;;16.66;48.04;99115.47;4793109;29;102417;-89
2021/11/11 11:47:55;;;;;;;;;10.75;10.50;;;;;16.67;47.44;99117.16;4816292;28;102656;-84
2021/11/11 11:50:29;;;;;;;;;12.50;10.75;;;;;16.69;47.99;99115.03;4817787;29;102774;-89